createdAt,value
2019-05-22T00:02:36.289Z,222.98
2019-05-22T00:11:04.483Z,230.20
2019-05-22T00:19:23.966Z,223.45
2019-05-22T00:27:48.582Z,211.20
2019-05-22T00:36:10.630Z,209.98
2019-05-22T00:44:33.840Z,214.38
2019-05-22T00:53:00.384Z,218.90
2019-05-22T01:01:24.445Z,225.32
2019-05-22T01:09:46.695Z,219.22
2019-05-22T01:18:11.924Z,212.02
2019-05-22T01:26:33.939Z,222.20
2019-05-22T01:34:56.242Z,215.30
2019-05-22T01:43:21.105Z,205.30
2019-05-22T01:51:41.815Z,217.93
2019-05-22T02:00:05.516Z,215.52
2019-05-22T02:08:27.556Z,214.53
2019-05-22T02:16:56.445Z,218.50
2019-05-22T02:25:11.962Z,222.25
2019-05-22T02:33:37.246Z,218.25
2019-05-22T02:42:01.233Z,210.08
2019-05-22T02:50:24.138Z,222.67
2019-05-22T02:58:48.998Z,208.60
2019-05-22T03:07:11.299Z,210.28
2019-05-22T03:15:32.775Z,211.32
2019-05-22T03:23:54.442Z,211.60
2019-05-22T03:32:16.312Z,216.78
2019-05-22T03:40:37.973Z,229.07
2019-05-22T03:49:00.176Z,202.80
2019-05-22T03:57:22.493Z,209.25
2019-05-22T04:05:44.640Z,204.60
2019-05-22T04:14:05.955Z,219.40
2019-05-22T04:22:27.390Z,203.77
2019-05-22T04:42:46.952Z,207.40
2019-05-22T04:51:21.114Z,208.60
2019-05-22T04:59:42.503Z,217.80
2019-05-22T05:08:04.638Z,246.97
2019-05-22T05:16:28.732Z,210.38
2019-05-22T05:24:50.401Z,211.95
2019-05-22T05:33:12.106Z,217.95
2019-05-22T05:41:37.841Z,222.50
2019-05-22T05:50:00.931Z,214.27
2019-05-22T05:58:24.698Z,207.25
2019-05-22T06:06:53.356Z,205.30
2019-05-22T06:15:15.311Z,224.40
2019-05-22T06:23:41.704Z,207.57
2019-05-22T06:32:09.245Z,212.72
2019-05-22T06:40:33.271Z,210.00
2019-05-22T06:48:57.044Z,199.50
2019-05-22T06:57:20.509Z,202.55
2019-05-22T07:05:42.964Z,206.32
2019-05-22T07:14:04.652Z,201.75
2019-05-22T07:22:26.741Z,207.27
2019-05-22T07:30:48.822Z,210.05
2019-05-22T07:39:10.917Z,202.97
2019-05-22T07:47:36.532Z,203.20
2019-05-22T07:55:57.149Z,211.70
2019-05-22T08:04:19.098Z,218.60
2019-05-22T08:12:44.758Z,211.22
2019-05-22T08:21:08.932Z,222.22
2019-05-22T08:29:31.222Z,225.75
2019-05-22T08:37:52.793Z,234.10
2019-05-22T08:46:16.664Z,229.80
2019-05-22T08:54:40.864Z,217.47
2019-05-22T09:03:03.404Z,214.53
2019-05-22T09:11:24.891Z,225.62
2019-05-22T09:19:46.897Z,227.53
2019-05-22T09:28:08.851Z,222.17
2019-05-22T09:36:31.236Z,222.17
2019-05-22T09:44:55.427Z,217.50
2019-05-22T09:53:18.284Z,220.63
2019-05-22T10:01:39.883Z,217.07
2019-05-22T10:10:01.492Z,219.53
2019-05-22T10:18:23.492Z,216.10
2019-05-22T10:26:45.355Z,211.12
2019-05-22T10:35:07.956Z,214.32
2019-05-22T10:43:29.597Z,220.12
2019-05-22T11:00:23.252Z,216.65
2019-05-22T11:08:45.245Z,217.72
2019-05-22T11:17:07.309Z,221.37
2019-05-22T11:25:31.559Z,214.80
2019-05-22T11:33:53.636Z,229.72
2019-05-22T11:42:16.196Z,222.93
2019-05-22T11:50:44.694Z,217.80
2019-05-22T11:59:07.287Z,219.77
2019-05-22T12:07:45.818Z,212.85
2019-05-22T12:16:08.082Z,210.40
2019-05-22T12:24:36.507Z,205.37
2019-05-22T12:32:52.684Z,206.30
2019-05-22T12:41:16.562Z,205.18
2019-05-22T12:49:38.529Z,225.60
2019-05-22T12:58:00.051Z,227.32
2019-05-22T13:06:22.661Z,223.22
2019-05-22T13:14:44.406Z,221.68
2019-05-22T13:23:09.943Z,223.70
2019-05-22T13:31:32.977Z,222.35
2019-05-22T13:39:55.062Z,220.33
2019-05-22T13:48:19.115Z,243.37
2019-05-22T13:56:39.589Z,214.08
2019-05-22T14:05:01.312Z,229.05
2019-05-22T14:13:26.498Z,207.12
2019-05-22T14:21:53.165Z,217.30
2019-05-22T14:30:14.715Z,210.93
2019-05-22T14:38:36.813Z,230.15
2019-05-22T14:47:12.137Z,236.40
2019-05-22T14:55:21.142Z,207.07
2019-05-22T15:03:42.986Z,194.50
2019-05-22T15:12:04.621Z,201.07
2019-05-22T15:20:28.177Z,190.57
2019-05-22T15:28:50.573Z,203.02
2019-05-22T15:37:12.943Z,202.95
2019-05-22T15:45:35.779Z,199.62
2019-05-22T15:53:57.716Z,190.53
2019-05-22T16:02:21.813Z,196.87
2019-05-22T16:10:42.344Z,193.02
2019-05-22T16:19:04.638Z,196.15
2019-05-22T16:27:26.429Z,190.75
2019-05-22T16:35:48.169Z,190.30
2019-05-22T16:44:10.197Z,200.13
2019-05-22T16:52:32.110Z,193.28
2019-05-22T17:00:56.574Z,196.72
2019-05-22T17:09:16.586Z,191.60
2019-05-22T17:17:38.438Z,199.42
2019-05-22T17:26:01.960Z,197.43
2019-05-22T17:34:34.241Z,202.28
2019-05-22T17:42:55.951Z,203.50
2019-05-22T17:51:18.099Z,194.13
2019-05-22T17:59:41.855Z,197.80
2019-05-22T18:08:03.720Z,188.10
2019-05-22T18:16:26.186Z,203.27
2019-05-22T18:24:47.761Z,190.05
2019-05-22T18:33:10.472Z,204.50
2019-05-22T18:41:33.059Z,197.55
2019-05-22T18:49:54.823Z,192.77
2019-05-22T18:58:16.534Z,188.47
2019-05-22T19:06:43.035Z,190.45
2019-05-22T19:15:04.862Z,189.62
2019-05-22T19:23:26.470Z,196.22
2019-05-22T19:31:48.384Z,189.50
2019-05-22T19:40:13.061Z,187.90
2019-05-22T19:48:34.864Z,186.50
2019-05-22T19:56:59.657Z,183.47
2019-05-22T20:05:20.794Z,186.75
2019-05-22T20:13:45.180Z,252.65
2019-05-22T20:22:07.997Z,192.18
2019-05-22T20:30:34.889Z,182.78
2019-05-22T20:39:01.813Z,181.90
2019-05-22T20:47:27.499Z,204.50
2019-05-22T20:55:54.210Z,184.52
2019-05-22T21:04:16.559Z,188.95
2019-05-22T21:12:40.949Z,201.25
2019-05-22T21:21:03.060Z,182.40
2019-05-22T21:29:25.295Z,178.85
2019-05-22T21:37:46.937Z,192.68
2019-05-22T21:46:11.671Z,177.85
2019-05-22T21:54:33.738Z,181.95
2019-05-22T22:02:57.874Z,185.48
2019-05-22T22:11:26.187Z,185.18
2019-05-22T22:19:49.010Z,180.07
2019-05-22T22:28:12.696Z,186.52
2019-05-22T22:36:36.331Z,181.07
2019-05-22T22:44:58.631Z,177.35
2019-05-22T22:53:21.290Z,184.80
2019-05-22T23:01:42.986Z,177.50
2019-05-22T23:10:09.037Z,178.93
2019-05-22T23:18:33.717Z,177.57
2019-05-22T23:26:55.493Z,182.47
2019-05-22T23:35:17.976Z,180.57
2019-05-22T23:43:40.139Z,180.75
2019-05-22T23:52:02.784Z,198.62
